Time;durP1;ratioP1;P1;durP2;ratioP2;P2;SDS_P1;SDS_P2;PMS_P1;PMS_P2;Temp;Humidity;BMP_temperature;BMP_pressure;BME280_temperature;BME280_humidity;BME280_pressure;Samples;Min_cycle;Max_cycle;Signal;HPM_P1;HPM_P2
2023/03/11 00:00:33;;;;;;;2.17;1.30;;;;;;;1.65;100.00;99206.13;6209759;23;20574;-91
2023/03/11 00:03:05;;;;;;;1.95;1.23;;;;;;;1.84;100.00;99245.59;6239172;23;20071;-89
2023/03/11 00:05:39;;;;;;;4.53;1.30;;;;;;;1.69;100.00;99221.66;6192230;23;20013;-91
2023/03/11 00:08:13;;;;;;;1.98;1.40;;;;;;;1.60;100.00;99206.28;6205991;23;20362;-90
2023/03/11 00:10:43;;;;;;;1.98;1.20;;;;;;;1.57;100.00;99209.00;6201984;23;20095;-94
2023/03/11 00:13:20;;;;;;;3.03;1.25;;;;;;;1.65;100.00;99238.31;6206062;23;20020;-93
2023/03/11 00:15:55;;;;;;;1.20;1.10;;;;;;;1.89;100.00;99291.53;6234130;23;20016;-90
2023/03/11 00:18:30;;;;;;;2.67;1.00;;;;;;;1.86;100.00;99296.00;6266678;23;20008;-92
2023/03/11 00:21:02;;;;;;;2.08;1.45;;;;;;;1.15;100.00;99184.97;6232801;23;20031;-93
2023/03/11 00:23:41;;;;;;;2.88;1.23;;;;;;;1.75;100.00;99299.75;6255848;23;20020;-89
2023/03/11 00:26:19;;;;;;;2.25;1.20;;;;;;;1.41;100.00;99249.47;6254246;23;20406;-94
2023/03/11 00:28:59;;;;;;;1.67;1.05;;;;;;;1.77;100.00;99311.03;6237307;22;20008;-88
2023/03/11 00:31:57;;;;;;;2.17;1.15;;;;;;;1.57;100.00;99296.84;6227935;22;20062;-90
2023/03/11 00:34:46;;;;;;;7.18;1.60;;;;;;;1.54;100.00;99303.00;6203307;23;20052;-94
2023/03/11 00:37:32;;;;;;;2.85;1.30;;;;;;;1.62;100.00;99321.03;6174799;23;20041;-95
2023/03/11 00:40:15;;;;;;;1.25;1.15;;;;;;;1.57;100.00;99323.78;6198821;23;20020;-93
2023/03/11 00:43:01;;;;;;;1.98;1.00;;;;;;;1.15;100.00;99262.34;6173446;23;20023;-92
2023/03/11 00:45:54;;;;;;;3.08;1.50;;;;;;;1.35;100.00;99294.81;6172606;23;20100;-92
2023/03/11 00:48:35;;;;;;;2.95;1.58;;;;;;;1.49;100.00;99322.28;6169937;23;20025;-90
2023/03/11 00:51:15;;;;;;;3.00;1.25;;;;;;;1.48;100.00;99320.56;6150132;23;20013;-94
2023/03/11 00:53:59;;;;;;;2.88;1.33;;;;;;;1.08;100.00;99259.06;6154059;23;20017;-94
2023/03/11 00:56:53;;;;;;;2.10;1.17;;;;;;;1.42;100.00;99324.19;6168635;23;20053;-94
2023/03/11 00:59:27;;;;;;;4.45;1.20;;;;;;;1.40;100.00;99326.00;6142371;23;20017;-94
2023/03/11 01:02:03;;;;;;;5.00;1.30;;;;;;;1.33;100.00;99311.41;6163244;23;20040;-92
2023/03/11 01:04:37;;;;;;;2.03;1.17;;;;;;;1.45;100.00;99338.91;6140757;23;20025;-93
2023/03/11 01:07:10;;;;;;;3.33;1.20;;;;;;;1.37;100.00;99336.50;6171163;23;20013;-88
2023/03/11 01:09:39;;;;;;;2.22;1.00;;;;;;;1.35;100.00;99352.19;6145271;23;20068;-95
2023/03/11 01:12:10;;;;;;;2.67;1.02;;;;;;;1.05;100.00;99308.66;6121946;23;20281;-94
2023/03/11 01:14:43;;;;;;;2.53;1.27;;;;;;;1.33;100.00;99353.13;6146605;23;20025;-88
2023/03/11 01:17:13;;;;;;;3.10;1.30;;;;;;;0.51;100.00;99230.13;6148778;23;20021;-88
2023/03/11 01:19:41;;;;;;;3.47;1.42;;;;;;;1.25;100.00;99342.91;6153785;23;20009;-87
2023/03/11 01:22:11;;;;;;;3.05;1.17;;;;;;;0.59;100.00;99249.03;6133224;23;20184;-86
2023/03/11 01:24:41;;;;;;;2.90;1.33;;;;;;;1.30;100.00;99356.66;6137429;23;20025;-91
2023/03/11 01:27:12;;;;;;;3.38;1.17;;;;;;;0.61;100.00;99245.50;6203541;23;20009;-92
2023/03/11 01:29:54;;;;;;;3.95;1.10;;;;;;;1.27;100.00;99355.88;6207144;23;20080;-90
2023/03/11 01:32:28;;;;;;;4.85;1.27;;;;;;;0.50;100.00;99225.81;6202830;23;20017;-90
2023/03/11 01:35:05;;;;;;;3.58;1.02;;;;;;;0.84;100.00;99284.00;6180932;23;20009;-88
2023/03/11 01:37:54;;;;;;;4.63;0.98;;;;;;;0.48;100.00;99238.00;6207906;23;20061;-90
2023/03/11 01:40:42;;;;;;;2.05;1.33;;;;;;;1.20;100.00;99356.97;6206171;23;20497;-90
2023/03/11 01:43:44;;;;;;;2.95;1.20;;;;;;;1.19;100.00;99356.09;6202757;23;20048;-95
2023/03/11 01:46:37;;;;;;;1.98;1.08;;;;;;;0.51;100.00;99253.56;6228517;23;20028;-95
2023/03/11 01:49:16;;;;;;;2.67;1.27;;;;;;;0.74;100.00;99311.19;6201766;23;20025;-89
2023/03/11 01:52:05;;;;;;;6.13;1.55;;;;;;;1.02;100.00;99366.94;6189907;23;20013;-92
2023/03/11 01:54:45;;;;;;;3.78;1.45;;;;;;;0.40;100.00;99279.03;6194605;23;20021;-92
2023/03/11 01:57:24;;;;;;;4.97;1.30;;;;;;;0.47;100.00;99298.84;6201648;23;20037;-92
2023/03/11 02:00:00;;;;;;;2.58;1.35;;;;;;;0.68;100.00;99350.41;6223306;23;20069;-92
2023/03/11 02:02:47;;;;;;;3.22;1.45;;;;;;;0.92;100.00;99406.31;6200134;23;20009;-92
2023/03/11 02:05:21;;;;;;;4.68;1.35;;;;;;;0.23;100.00;99288.09;6202593;23;20029;-90
2023/03/11 02:07:52;;;;;;;1.67;1.20;;;;;;;0.97;100.00;99413.13;6198920;23;20017;-95
2023/03/11 02:10:27;;;;;;;3.80;1.50;;;;;;;1.03;100.00;99407.78;6201664;23;20017;-88
2023/03/11 02:13:01;;;;;;;3.65;1.30;;;;;;;1.08;100.00;99412.03;6207823;23;20032;-89
2023/03/11 02:15:38;;;;;;;5.07;1.38;;;;;;;1.10;100.00;99408.50;6205939;23;20013;-89
2023/03/11 02:18:17;;;;;;;4.88;1.65;;;;;;;0.49;100.00;99294.41;6201096;23;20095;-94
2023/03/11 02:21:00;;;;;;;4.45;1.67;;;;;;;0.51;100.00;99290.03;6206095;23;20013;-92
2023/03/11 02:24:01;;;;;;;5.60;1.45;;;;;;;0.83;100.00;99333.56;6207491;23;20017;-94
2023/03/11 02:27:03;;;;;;;4.50;1.50;;;;;;;0.67;100.00;99304.41;6207967;23;20024;-90
2023/03/11 02:29:38;;;;;;;3.83;1.30;;;;;;;0.58;100.00;99281.19;6209934;23;20064;-89
2023/03/11 02:32:09;;;;;;;4.25;1.20;;;;;;;1.18;100.00;99383.06;6204348;23;21167;-91
2023/03/11 02:34:41;;;;;;;4.95;1.48;;;;;;;1.32;100.00;99386.19;6232946;23;20013;-95
2023/03/11 02:37:14;;;;;;;5.82;1.58;;;;;;;1.29;100.00;99386.25;6175661;23;20092;-96
2023/03/11 02:39:54;;;;;;;3.53;1.35;;;;;;;1.27;100.00;99389.78;6204047;23;20017;-92
2023/03/11 02:42:32;;;;;;;4.20;1.50;;;;;;;0.57;100.00;99279.47;6199623;23;20028;-92
2023/03/11 02:45:12;;;;;;;4.60;1.38;;;;;;;0.90;100.00;99337.72;6200365;23;20083;-94
2023/03/11 02:48:05;;;;;;;7.07;1.40;;;;;;;1.24;100.00;99390.75;6206747;23;20047;-92
2023/03/11 02:50:36;;;;;;;5.10;1.40;;;;;;;0.59;100.00;99282.91;6229734;23;20386;-92
2023/03/11 02:53:09;;;;;;;8.02;1.95;;;;;;;0.60;100.00;99290.69;6211769;23;20009;-89
2023/03/11 02:55:37;;;;;;;3.85;1.55;;;;;;;0.66;100.00;99303.56;6212271;23;20013;-87
2023/03/11 02:58:04;;;;;;;5.53;1.70;;;;;;;0.77;100.00;99326.75;6207972;23;20043;-92
2023/03/11 03:00:34;;;;;;;6.05;1.50;;;;;;;1.19;100.00;99399.56;6201231;23;20017;-92
2023/03/11 03:03:04;;;;;;;4.75;1.50;;;;;;;0.61;100.00;99307.19;6232814;23;20362;-90
2023/03/11 03:05:34;;;;;;;7.18;1.38;;;;;;;0.65;100.00;99314.88;6212085;23;20253;-89
2023/03/11 03:08:02;;;;;;;5.40;1.50;;;;;;;1.19;100.00;99404.78;6212572;23;20059;-89
2023/03/11 03:10:38;;;;;;;8.15;1.60;;;;;;;1.25;100.00;99404.66;6214393;23;20103;-88
2023/03/11 03:13:11;;;;;;;5.55;1.42;;;;;;;0.71;100.00;99319.09;6187264;23;20021;-94
2023/03/11 03:15:46;;;;;;;5.55;1.30;;;;;;;0.90;100.00;99351.63;6229419;23;20028;-92
2023/03/11 03:18:13;;;;;;;3.55;1.35;;;;;;;1.26;100.00;99422.84;6200220;23;20100;-92
2023/03/11 03:20:43;;;;;;;3.83;1.23;;;;;;;0.60;100.00;99308.06;6200523;23;20025;-91
2023/03/11 03:23:18;;;;;;;5.65;1.33;;;;;;;0.69;100.00;99326.06;6203758;23;20016;-93
2023/03/11 03:25:48;;;;;;;6.47;1.40;;;;;;;1.30;100.00;99427.09;6177009;23;20021;-90
2023/03/11 03:28:45;;;;;;;5.07;1.30;;;;;;;1.31;100.00;99427.94;6201231;23;20048;-92
2023/03/11 03:31:16;;;;;;;3.38;1.30;;;;;;;1.10;100.00;99407.63;6200321;23;20027;-91
2023/03/11 03:33:44;;;;;;;6.18;1.30;;;;;;;0.63;100.00;99321.84;6211494;23;20009;-88
2023/03/11 03:36:16;;;;;;;2.97;1.48;;;;;;;0.58;100.00;99328.09;6211482;23;20020;-91
2023/03/11 03:38:45;;;;;;;3.72;0.98;;;;;;;0.60;100.00;99327.16;6206921;23;20525;-93
2023/03/11 03:41:16;;;;;;;4.72;1.58;;;;;;;1.25;100.00;99447.22;6208401;23;20020;-91
2023/03/11 03:43:47;;;;;;;4.13;1.50;;;;;;;0.62;100.00;99330.59;6212910;23;20076;-90
2023/03/11 03:46:21;;;;;;;4.97;1.65;;;;;;;0.90;100.00;99364.66;6189646;23;20029;-88
2023/03/11 03:48:58;;;;;;;5.40;1.30;;;;;;;1.33;100.00;99445.28;6186821;23;20056;-90
2023/03/11 03:51:25;;;;;;;6.13;1.65;;;;;;;1.32;100.00;99459.22;6200175;23;20067;-93
2023/03/11 03:53:56;;;;;;;6.53;1.83;;;;;;;1.32;100.00;99456.59;6180299;23;20009;-92
2023/03/11 03:56:29;;;;;;;5.38;1.88;;;;;;;1.03;100.00;99420.81;6207336;23;20040;-89
2023/03/11 03:58:58;;;;;;;9.77;1.85;;;;;;;0.88;100.00;99389.91;6183975;23;20017;-89
2023/03/11 04:01:28;;;;;;;4.68;1.90;;;;;;;1.33;100.00;99467.91;6206944;22;21017;-90
2023/03/11 04:03:59;;;;;;;6.30;2.08;;;;;;;0.79;100.00;99379.66;6214480;23;20440;-91
2023/03/11 04:06:41;;;;;;;6.32;2.03;;;;;;;0.71;100.00;99368.59;6218180;23;20024;-88
2023/03/11 04:09:43;;;;;;;4.35;1.85;;;;;;;1.05;100.00;99434.66;6201026;23;20058;-89
2023/03/11 04:12:20;;;;;;;4.93;2.10;;;;;;;1.11;100.00;99440.59;6238758;23;20057;-92
2023/03/11 04:15:14;;;;;;;6.00;2.08;;;;;;;1.31;100.00;99469.69;6220230;23;20051;-89
2023/03/11 04:17:47;;;;;;;4.50;1.88;;;;;;;0.81;100.00;99403.94;6214923;23;20047;-90
2023/03/11 04:20:14;;;;;;;4.75;1.85;;;;;;;0.96;100.00;99429.66;6189100;23;20016;-88
2023/03/11 04:22:51;;;;;;;6.47;2.42;;;;;;;1.23;100.00;99469.88;6222969;22;20036;-90
2023/03/11 04:25:33;;;;;;;6.03;1.70;;;;;;;1.37;100.00;99500.84;6189557;23;20021;-89
2023/03/11 04:28:16;;;;;;;6.25;1.80;;;;;;;1.10;100.00;99452.81;6230612;23;20040;-90
2023/03/11 04:30:51;;;;;;;6.05;1.98;;;;;;;0.99;100.00;99432.19;6234999;23;20013;-92
2023/03/11 04:33:24;;;;;;;7.78;2.50;;;;;;;0.76;100.00;99395.41;6211913;23;20068;-89
2023/03/11 04:36:09;;;;;;;5.07;2.10;;;;;;;1.11;100.00;99451.88;6210090;23;20024;-89
2023/03/11 04:38:38;;;;;;;3.72;2.30;;;;;;;1.11;100.00;99459.72;6238588;23;20083;-91
2023/03/11 04:41:07;;;;;;;6.78;2.80;;;;;;;1.36;100.00;99506.94;6207155;23;20059;-92
2023/03/11 04:43:38;;;;;;;5.35;2.42;;;;;;;0.76;100.00;99407.56;6188256;23;20043;-89
2023/03/11 04:46:12;;;;;;;5.65;2.55;;;;;;;1.40;100.00;99519.91;6215080;23;20028;-91
2023/03/11 04:49:03;;;;;;;5.75;2.47;;;;;;;0.72;100.00;99398.97;6236057;23;20027;-94
2023/03/11 04:51:31;;;;;;;6.90;2.22;;;;;;;1.42;100.00;99516.38;6181517;23;20023;-92
2023/03/11 04:54:00;;;;;;;5.35;2.20;;;;;;;0.88;100.00;99431.59;6208543;23;20024;-93
2023/03/11 04:56:33;;;;;;;3.60;2.10;;;;;;;1.05;100.00;99450.31;6234713;23;20013;-93
2023/03/11 04:59:05;;;;;;;4.82;2.22;;;;;;;0.93;100.00;99429.75;6205043;23;20031;-94
2023/03/11 05:01:33;;;;;;;4.88;2.30;;;;;;;0.69;100.00;99394.66;6179710;23;20693;-94
2023/03/11 05:04:01;;;;;;;7.47;2.25;;;;;;;1.40;100.00;99516.44;6204715;23;20070;-91
2023/03/11 05:06:35;;;;;;;5.88;2.28;;;;;;;1.37;100.00;99517.34;6204194;23;20025;-92
2023/03/11 05:09:04;;;;;;;4.15;2.17;;;;;;;1.34;100.00;99527.00;6227583;23;20235;-93
2023/03/11 05:11:56;;;;;;;4.93;2.60;;;;;;;1.08;100.00;99490.25;6212253;23;20382;-88
2023/03/11 05:14:24;;;;;;;8.95;2.97;;;;;;;1.33;100.00;99522.66;6210825;23;20055;-90
2023/03/11 05:16:54;;;;;;;7.00;2.10;;;;;;;1.10;100.00;99504.09;6207934;23;20036;-93
2023/03/11 05:19:45;;;;;;;6.80;2.60;;;;;;;1.04;100.00;99489.44;6207580;23;20048;-94
2023/03/11 05:22:38;;;;;;;7.47;2.55;;;;;;;1.20;100.00;99506.44;6232198;23;20009;-94
2023/03/11 05:25:15;;;;;;;8.30;2.65;;;;;;;1.45;100.00;99548.47;6206747;23;20059;-92
2023/03/11 05:27:53;;;;;;;12.32;2.67;;;;;;;1.44;100.00;99549.34;6230124;23;20051;-93
2023/03/11 05:30:23;;;;;;;6.43;2.70;;;;;;;0.83;100.00;99458.63;6177622;23;20017;-92
2023/03/11 05:32:55;;;;;;;4.57;2.30;;;;;;;1.46;100.00;99554.53;6235391;23;20048;-90
2023/03/11 05:35:27;;;;;;;7.57;3.17;;;;;;;1.11;100.00;99503.19;6210726;23;20037;-91
2023/03/11 05:37:56;;;;;;;8.30;3.00;;;;;;;1.49;100.00;99564.91;6233001;23;20039;-91
2023/03/11 05:40:26;;;;;;;7.32;2.65;;;;;;;0.88;100.00;99473.28;6188076;23;20005;-90
2023/03/11 05:42:53;;;;;;;7.88;2.90;;;;;;;0.94;100.00;99491.41;6212751;23;20016;-87
2023/03/11 05:45:20;;;;;;;8.15;3.05;;;;;;;1.19;100.00;99543.84;6212232;23;20025;-88
2023/03/11 05:47:49;;;;;;;10.27;2.90;;;;;;;1.32;100.00;99568.75;6211880;23;20016;-87
2023/03/11 05:50:19;;;;;;;9.32;3.22;;;;;;;1.15;100.00;99544.81;6211066;23;20024;-89
2023/03/11 05:52:47;;;;;;;9.07;3.53;;;;;;;0.86;100.00;99500.28;6202879;23;20296;-95
2023/03/11 05:55:17;;;;;;;9.18;3.10;;;;;;;0.86;100.00;99498.53;6204568;23;20024;-92
2023/03/11 05:57:49;;;;;;;6.53;3.08;;;;;;;0.91;100.00;99498.44;6206311;23;20013;-95
2023/03/11 06:00:22;;;;;;;6.43;2.78;;;;;;;0.67;100.00;99452.91;6209363;23;20008;-93
2023/03/11 06:02:52;;;;;;;7.63;3.10;;;;;;;1.05;100.00;99520.69;6206521;23;20025;-93
2023/03/11 06:05:33;;;;;;;10.57;2.97;;;;;;;1.18;100.00;99528.25;6211900;23;20072;-90
2023/03/11 06:08:01;;;;;;;6.10;2.65;;;;;;;1.45;100.00;99577.16;6215271;23;20013;-88
2023/03/11 06:10:31;;;;;;;9.43;2.88;;;;;;;1.16;100.00;99525.66;6240282;23;20024;-93
2023/03/11 06:13:00;;;;;;;6.38;2.80;;;;;;;1.46;100.00;99576.25;6183311;23;20099;-92
2023/03/11 06:18:10;;;;;;;5.32;2.45;;;;;;;1.51;100.00;99582.25;6210186;23;20035;-91
2023/03/11 06:21:25;;;;;;;7.15;2.63;;;;;;;1.26;100.00;99552.41;6216527;23;20031;-89
2023/03/11 06:24:00;;;;;;;7.07;2.60;;;;;;;1.22;100.00;99550.75;6216637;23;20020;-91
2023/03/11 06:26:52;;;;;;;8.98;2.55;;;;;;;1.19;100.00;99551.69;6086561;23;20039;-88
2023/03/11 06:29:25;;;;;;;12.52;2.38;;;;;;;1.54;100.00;99613.47;6215242;23;20020;-84
2023/03/11 06:32:17;;;;;;;8.27;2.38;;;;;;;1.41;100.00;99591.19;6215346;23;20047;-92
2023/03/11 06:35:04;;;;;;;8.10;2.53;;;;;;;1.59;100.00;99622.03;6212046;23;20012;-87
2023/03/11 06:37:39;;;;;;;9.43;2.75;;;;;;;0.96;100.00;99512.19;6238570;23;20398;-88
2023/03/11 06:40:09;;;;;;;10.27;2.55;;;;;;;1.30;100.00;99569.69;6215541;23;20013;-88
2023/03/11 06:42:43;;;;;;;5.37;2.40;;;;;;;0.99;100.00;99528.66;6162320;23;20218;-86
2023/03/11 06:45:32;;;;;;;6.18;2.60;;;;;;;1.29;100.00;99567.97;6183749;23;20061;-89
2023/03/11 06:48:05;;;;;;;6.65;2.80;;;;;;;1.14;100.00;99542.22;6210821;23;20131;-88
2023/03/11 06:50:38;;;;;;;10.57;2.83;;;;;;;1.09;100.00;99531.06;6196073;23;20013;-90
2023/03/11 06:53:10;;;;;;;6.07;2.35;;;;;;;1.38;100.00;99581.66;6183693;23;20009;-90
2023/03/11 06:56:00;;;;;;;15.30;4.63;;;;;;;1.55;100.00;99612.59;6183468;23;20027;-89
2023/03/11 06:58:41;;;;;;;11.40;2.90;;;;;;;1.55;100.00;99599.53;6188057;23;20061;-89
2023/03/11 07:01:22;;;;;;;8.75;2.67;;;;;;;1.78;100.00;99638.16;6210510;23;20020;-88
2023/03/11 07:03:59;;;;;;;8.85;2.80;;;;;;;1.25;100.00;99545.47;6183873;23;20329;-85
2023/03/11 07:06:30;;;;;;;11.18;2.47;;;;;;;1.75;100.00;99633.00;6204329;23;20032;-92
2023/03/11 07:09:02;;;;;;;8.02;2.60;;;;;;;1.74;100.00;99639.97;6174909;23;20626;-93
2023/03/11 07:11:38;;;;;;;7.90;2.75;;;;;;;1.70;100.00;99633.13;6197986;23;20017;-95
2023/03/11 07:14:09;;;;;;;4.93;2.22;;;;;;;1.79;100.00;99628.56;6199961;23;20021;-93
2023/03/11 07:16:42;;;;;;;6.10;1.90;;;;;;;2.22;97.05;99686.69;6172927;23;20021;-91
2023/03/11 07:19:14;;;;;;;7.67;1.90;;;;;;;2.33;93.16;99669.00;6174102;23;20068;-92
2023/03/11 07:21:56;;;;;;;6.93;2.30;;;;;;;2.63;91.45;99690.03;6197787;23;20451;-94
2023/03/11 07:24:52;;;;;;;9.95;2.08;;;;;;;2.81;89.46;99685.19;6176321;23;20017;-93
2023/03/11 07:27:30;;;;;;;;;;;;;;;3.08;85.87;99688.78;6198192;23;20013;-92
2023/03/11 07:30:25;;;;;;;8.07;2.17;;;;;;;2.98;81.26;99681.25;6202763;23;19923;-95
2023/03/11 07:33:14;;;;;;;4.85;1.90;;;;;;;2.94;81.34;99637.78;6182866;23;20043;-93
2023/03/11 07:36:11;;;;;;;6.72;2.00;;;;;;;3.17;77.80;99672.81;6170809;23;20020;-92
2023/03/11 07:39:16;;;;;;;5.70;2.38;;;;;;;3.55;76.05;99704.91;6205565;23;20005;-92
2023/03/11 07:41:57;;;;;;;6.47;1.98;;;;;;;3.37;75.31;99659.19;6182114;23;20060;-89
2023/03/11 07:44:33;;;;;;;5.40;1.75;;;;;;;3.80;72.05;99721.56;6205306;23;20017;-93
2023/03/11 07:47:26;;;;;;;6.35;1.77;;;;;;;3.53;71.67;99680.50;6213000;23;20024;-94
2023/03/11 07:49:56;;;;;;;5.95;1.98;;;;;;;3.96;71.45;99736.81;6234500;23;20021;-95
2023/03/11 07:52:34;;;;;;;7.78;2.00;;;;;;;3.80;69.56;99734.66;6208601;23;20042;-90
2023/03/11 07:55:42;;;;;;;6.20;2.00;;;;;;;3.17;72.11;99701.59;6225121;23;20020;-92
2023/03/11 07:58:33;;;;;;;6.65;2.63;;;;;;;3.15;74.12;99745.25;6203030;23;20061;-94
2023/03/11 08:01:23;;;;;;;8.90;1.88;;;;;;;2.58;76.92;99671.00;6201505;23;20039;-92
2023/03/11 08:04:14;;;;;;;8.13;1.73;;;;;;;3.17;74.59;99759.16;6204278;23;20512;-93
2023/03/11 08:06:58;;;;;;;6.45;2.30;;;;;;;2.90;77.37;99715.44;6204661;23;20074;-94
2023/03/11 08:09:41;;;;;;;6.80;2.30;;;;;;;2.90;76.20;99709.34;6227218;23;20047;-95
2023/03/11 08:12:29;;;;;;;8.93;2.47;;;;;;;2.86;75.22;99726.88;6183820;23;20035;-94
2023/03/11 08:15:20;;;;;;;8.90;2.20;;;;;;;2.42;77.08;99679.22;6205753;23;20514;-93
2023/03/11 08:18:12;;;;;;;7.03;2.30;;;;;;;2.87;78.44;99770.44;6232335;23;20012;-93
2023/03/11 08:21:14;;;;;;;11.02;2.20;;;;;;;2.83;77.33;99767.97;6211133;23;20039;-89
2023/03/11 08:24:06;;;;;;;6.78;2.20;;;;;;;2.94;77.78;99779.84;6211679;23;20020;-90
2023/03/11 08:26:33;;;;;;;8.23;2.22;;;;;;;2.80;77.03;99754.06;6239955;23;20005;-90
2023/03/11 08:29:14;;;;;;;6.82;2.30;;;;;;;2.83;76.02;99737.44;6206439;23;20032;-91
2023/03/11 08:31:48;;;;;;;7.72;2.10;;;;;;;3.17;73.30;99792.31;6185223;23;20090;-91
2023/03/11 08:34:39;;;;;;;6.35;2.17;;;;;;;3.18;72.95;99779.19;6209046;23;20051;-91
2023/03/11 08:37:09;;;;;;;8.32;2.60;;;;;;;3.40;71.81;99760.31;6184365;23;20076;-89
2023/03/11 08:39:40;;;;;;;7.18;1.98;;;;;;;4.02;69.04;99796.91;6208261;23;20029;-91
2023/03/11 08:42:10;;;;;;;8.57;1.92;;;;;;;3.75;63.57;99743.59;6183021;23;20011;-92
2023/03/11 08:45:03;;;;;;;4.45;1.85;;;;;;;3.88;65.72;99784.22;6198995;23;20056;-92
2023/03/11 08:47:44;;;;;;;4.65;1.83;;;;;;;3.82;65.72;99789.63;6173719;23;20023;-94
2023/03/11 08:50:20;;;;;;;7.10;1.77;;;;;;;4.01;66.56;99817.00;6125804;23;20020;-92
2023/03/11 08:52:50;;;;;;;5.80;1.83;;;;;;;3.99;64.46;99821.41;6148437;23;20017;-95
2023/03/11 08:55:29;;;;;;;5.57;1.92;;;;;;;3.80;63.82;99818.47;6172700;23;20017;-94
2023/03/11 08:58:22;;;;;;;5.47;1.65;;;;;;;3.10;67.33;99754.16;6195544;23;20020;-93
2023/03/11 09:01:00;;;;;;;7.57;2.05;;;;;;;3.20;68.14;99791.38;6158867;23;20399;-93
2023/03/11 09:03:38;;;;;;;6.07;1.80;;;;;;;3.25;68.85;99821.75;6185189;23;20020;-93
2023/03/11 09:06:10;;;;;;;5.80;1.92;;;;;;;3.07;68.95;99802.16;6155364;23;20028;-91
2023/03/11 09:08:38;;;;;;;;;;;;;;;3.16;67.74;99825.47;6207018;23;20013;-91
2023/03/11 09:11:07;;;;;;;3.50;1.52;;;;;;;2.70;68.67;99733.41;6205207;23;19904;-93
2023/03/11 09:13:42;;;;;;;4.18;1.40;;;;;;;3.04;65.12;99786.53;6181396;23;20009;-91
2023/03/11 09:16:26;;;;;;;3.63;1.20;;;;;;;3.30;64.47;99832.97;6170529;23;20017;-94
2023/03/11 09:19:27;;;;;;;4.10;1.48;;;;;;;3.37;63.69;99828.41;6175244;23;20017;-92
2023/03/11 09:22:18;;;;;;;3.67;1.60;;;;;;;2.73;62.21;99717.63;6197180;23;20020;-94
2023/03/11 09:24:52;;;;;;;7.25;1.67;;;;;;;3.39;62.51;99830.09;6192373;23;20013;-94
2023/03/11 09:27:20;;;;;;;5.30;1.60;;;;;;;3.11;62.67;99767.19;6153669;23;20027;-91
2023/03/11 09:29:49;;;;;;;4.22;1.38;;;;;;;3.55;62.01;99801.75;6203031;23;20021;-91
2023/03/11 09:32:18;;;;;;;5.13;2.10;;;;;;;3.85;62.20;99823.59;6178877;23;20017;-90
2023/03/11 09:34:46;;;;;;;4.40;1.50;;;;;;;4.10;62.10;99831.56;6178441;23;20013;-91
2023/03/11 09:37:25;;;;;;;5.28;1.88;;;;;;;3.94;60.34;99836.41;6179268;23;20048;-92
2023/03/11 09:40:07;;;;;;;5.35;1.65;;;;;;;3.06;61.38;99740.28;6178320;23;20033;-91
2023/03/11 09:43:00;;;;;;;6.80;2.05;;;;;;;3.60;63.49;99833.03;6168391;23;20013;-92
2023/03/11 09:45:40;;;;;;;7.15;1.67;;;;;;;3.40;61.39;99796.94;6160989;23;20009;-90
2023/03/11 09:48:31;;;;;;;8.60;1.48;;;;;;;3.42;62.02;99816.06;6168087;23;20025;-91
2023/03/11 09:51:07;;;;;;;4.82;1.73;;;;;;;3.33;60.42;99819.78;6204027;23;20020;-89
2023/03/11 09:53:43;;;;;;;3.88;1.70;;;;;;;3.48;61.43;99842.94;6176090;23;20425;-91
2023/03/11 09:56:21;;;;;;;4.72;1.33;;;;;;;3.63;60.70;99833.78;6171537;23;20104;-90
2023/03/11 09:59:18;;;;;;;6.72;2.00;;;;;;;4.03;60.06;99828.28;6171299;23;20032;-90
2023/03/11 10:01:49;;;;;;;5.40;1.52;;;;;;;4.12;58.99;99817.53;6165082;23;20032;-89
2023/03/11 10:04:49;;;;;;;5.40;2.05;;;;;;;4.26;55.73;99829.34;6166114;23;20060;-90
2023/03/11 10:07:38;;;;;;;7.63;1.75;;;;;;;4.16;53.24;99805.19;6164742;23;20013;-91
2023/03/11 10:10:13;;;;;;;3.67;1.00;;;;;;;4.21;53.66;99832.13;6161969;23;20423;-91
2023/03/11 10:13:18;;;;;;;4.63;1.27;;;;;;;3.95;53.87;99839.88;6167251;23;20065;-91
2023/03/11 10:16:09;;;;;;;5.05;1.15;;;;;;;3.79;55.31;99840.31;6145668;23;20080;-90
2023/03/11 10:19:28;;;;;;;2.95;1.20;;;;;;;3.81;56.41;99846.38;6190352;23;20032;-91
2023/03/11 10:22:10;;;;;;;7.43;2.90;;;;;;;3.90;56.61;99844.41;6189940;23;20020;-91
2023/03/11 10:24:56;;;;;;;5.07;1.50;;;;;;;4.17;54.51;99846.22;6159861;23;20021;-92
2023/03/11 10:28:04;;;;;;;5.22;1.27;;;;;;;4.46;54.34;99834.84;6164625;23;20060;-91
2023/03/11 10:30:40;;;;;;;5.60;1.50;;;;;;;4.69;53.79;99839.41;6166854;23;20081;-90
2023/03/11 10:33:47;;;;;;;5.32;1.63;;;;;;;4.87;53.84;99838.81;6176760;23;20205;-92
2023/03/11 10:36:55;;;;;;;2.42;1.10;;;;;;;5.35;51.90;99811.81;6185185;23;20009;-90
2023/03/11 10:39:31;;;;;;;4.68;1.20;;;;;;;5.69;51.77;99820.19;6156350;23;20025;-90
2023/03/11 10:42:40;;;;;;;3.10;1.15;;;;;;;5.82;50.43;99833.75;6169123;23;20017;-92
2023/03/11 10:45:22;;;;;;;3.30;1.10;;;;;;;5.63;47.83;99817.81;6199718;23;20025;-91
2023/03/11 10:47:57;;;;;;;7.50;1.70;;;;;;;5.35;48.05;99815.31;6183730;23;20032;-90
2023/03/11 10:50:46;;;;;;;4.67;1.00;;;;;;;4.98;47.66;99762.34;6186360;23;20038;-91
2023/03/11 10:53:30;;;;;;;3.72;1.10;;;;;;;5.03;48.25;99745.56;6168694;23;20015;-92
2023/03/11 10:56:05;;;;;;;2.33;1.00;;;;;;;5.47;47.95;99812.25;6162430;23;20044;-91
2023/03/11 11:09:29;;;;;;;4.57;1.60;;;;;;;4.81;54.23;99859.97;4515085;27;16584797;-92
2023/03/11 11:12:25;;;;;;;8.75;1.80;;;;;;;4.57;54.91;99862.44;5078066;22;20139;-94
2023/03/11 11:15:42;;;;;;;5.05;1.60;;;;;;;4.44;55.15;99853.25;5114179;28;20047;-92
2023/03/11 11:18:22;;;;;;;4.32;1.30;;;;;;;4.55;53.93;99858.19;5110050;28;20179;-91
2023/03/11 11:21:30;;;;;;;4.28;1.45;;;;;;;4.68;54.62;99849.03;5119171;28;20066;-91
2023/03/11 11:24:45;;;;;;;4.60;1.90;;;;;;;4.71;53.35;99829.72;5112392;28;20048;-92
2023/03/11 11:27:29;;;;;;;3.42;1.70;;;;;;;4.68;52.91;99801.81;5116588;28;20067;-91
2023/03/11 11:30:18;;;;;;;6.72;1.50;;;;;;;5.00;51.81;99862.88;5123820;28;20070;-92
2023/03/11 11:32:58;;;;;;;2.97;1.30;;;;;;;4.78;51.65;99836.47;5113823;28;20082;-91
2023/03/11 11:35:57;;;;;;;2.65;1.13;;;;;;;5.01;50.85;99868.06;5119876;28;20135;-90
2023/03/11 11:38:51;;;;;;;5.38;1.40;;;;;;;4.99;51.96;99867.25;5120465;28;20083;-93
2023/03/11 11:41:24;;;;;;;4.10;1.33;;;;;;;4.67;50.79;99862.19;5109677;28;20135;-91
2023/03/11 11:44:32;;;;;;;3.25;1.58;;;;;;;4.35;52.07;99866.66;5113533;28;20087;-91
2023/03/11 11:47:22;;;;;;;4.80;1.40;;;;;;;4.39;51.85;99863.03;5112257;28;20092;-91
2023/03/11 11:49:59;;;;;;;4.40;1.30;;;;;;;4.66;50.41;99879.69;5113199;28;20047;-91
2023/03/11 11:52:51;;;;;;;5.50;1.95;;;;;;;4.69;51.08;99861.22;5105490;28;20039;-93
2023/03/11 11:55:46;;;;;;;5.50;1.38;;;;;;;4.39;50.60;99818.47;5128317;28;20051;-92
2023/03/11 11:58:40;;;;;;;4.28;1.20;;;;;;;4.51;51.27;99846.06;5115641;28;20037;-92
2023/03/11 12:01:20;;;;;;;3.28;1.23;;;;;;;4.53;51.15;99850.38;5109074;28;20115;-91
2023/03/11 12:04:29;;;;;;;2.85;1.02;;;;;;;4.52;50.38;99848.66;5111005;28;20045;-91
2023/03/11 12:07:24;;;;;;;3.58;1.08;;;;;;;4.68;51.03;99859.50;5117666;28;20043;-92
2023/03/11 12:10:19;;;;;;;4.57;1.50;;;;;;;4.77;51.40;99838.22;5103313;28;20048;-93
2023/03/11 12:13:16;;;;;;;4.00;1.30;;;;;;;5.01;50.11;99827.84;5111344;28;20111;-89
2023/03/11 12:16:29;;;;;;;3.22;1.50;;;;;;;5.21;51.11;99855.13;5100587;28;20036;-91
2023/03/11 12:19:34;;;;;;;3.28;1.50;;;;;;;4.85;52.27;99824.88;5115325;28;20048;-91
2023/03/11 12:22:32;;;;;;;4.88;1.30;;;;;;;4.93;52.03;99859.56;5103950;28;20036;-89
2023/03/11 12:25:55;;;;;;;3.83;1.38;;;;;;;4.74;52.84;99853.19;5099840;28;20040;-91
2023/03/11 12:28:41;;;;;;;4.75;1.10;;;;;;;4.59;52.03;99828.31;5100761;28;20051;-91
2023/03/11 12:31:40;;;;;;;3.63;1.02;;;;;;;4.70;52.72;99851.59;5111335;28;20071;-91
2023/03/11 12:34:33;;;;;;;6.80;1.42;;;;;;;4.90;51.47;99851.78;5129381;28;20061;-90
2023/03/11 12:37:15;;;;;;;5.57;1.20;;;;;;;5.06;50.29;99854.78;5105130;28;20040;-92
2023/03/11 12:40:45;;;;;;;6.97;1.30;;;;;;;5.04;49.69;99844.31;5104071;28;20104;-92
2023/03/11 12:43:50;;;;;;;5.88;1.33;;;;;;;5.06;49.94;99852.16;5108198;28;20137;-91
2023/03/11 12:46:53;;;;;;;3.90;1.17;;;;;;;5.20;49.57;99835.03;5097567;28;20048;-92
2023/03/11 12:49:34;;;;;;;4.63;1.27;;;;;;;5.19;48.45;99843.00;5110406;28;20028;-90
2023/03/11 12:52:27;;;;;;;3.53;1.15;;;;;;;5.19;49.32;99812.34;5107999;28;20059;-91
2023/03/11 12:55:15;;;;;;;3.05;1.05;;;;;;;5.60;49.55;99852.91;5100692;28;20082;-92